Overview Statistics Trail Chart Weather Telemetry Raw packets
 

This is the latest recevied telemetry packets stored in our database for station/object DO2QG-1. If no packets are shown the sender has not sent any telemetry packets the latest 10 day(s).

Telemetry packets is used to share measurements like repeteater parameters, battery voltage, radiation readings (or any other measurements).

<< 1 2 3 4 >>
Time Press* Temp.in* Hum* QNH* Temp.out*
1788568193 990.9 hPa 20.6 C deg 62.8 % 1023.2 hPa 0 C deg
1788566363 990.8 hPa 20.8 C deg 62.2 % 1023.1 hPa 0 C deg
1788564533 990.5 hPa 20.8 C deg 62.4 % 1022.8 hPa 0 C deg
1788562703 990 hPa 20.9 C deg 62.2 % 1022.2 hPa 0 C deg
1788560873 990 hPa 21 C deg 62.1 % 1022.2 hPa 0 C deg
1788559043 989.7 hPa 21 C deg 62.4 % 1021.9 hPa 0 C deg
1788557213 989.2 hPa 21.1 C deg 62.4 % 1021.4 hPa 0 C deg
1788555383 989 hPa 21.2 C deg 62.4 % 1021.2 hPa 0 C deg
1788553553 988.6 hPa 21.2 C deg 62.5 % 1020.8 hPa 0 C deg
1788551722 988.6 hPa 21.2 C deg 62.5 % 1020.7 hPa 0 C deg
1788549892 988.3 hPa 21.4 C deg 62.3 % 1020.5 hPa 0 C deg
1788548062 988 hPa 21.3 C deg 62.4 % 1020.1 hPa 0 C deg
1788546232 987.5 hPa 21.4 C deg 62.5 % 1019.6 hPa 0 C deg
1788544402 987.4 hPa 21.4 C deg 62.8 % 1019.5 hPa 0 C deg
1788542572 986.7 hPa 21.5 C deg 62.8 % 1018.8 hPa 0 C deg
1788540742 986.7 hPa 21.6 C deg 62.7 % 1018.8 hPa 0 C deg
1788538912 986.4 hPa 21.6 C deg 62.9 % 1018.5 hPa 0 C deg
1788537082 986.3 hPa 21.6 C deg 62.9 % 1018.4 hPa 0 C deg
1788535252 985.2 hPa 21.6 C deg 62.7 % 1017.2 hPa 0 C deg
1788533421 984.8 hPa 21.6 C deg 62.6 % 1016.7 hPa 0 C deg
1788531591 984.8 hPa 21.6 C deg 62.6 % 1016.8 hPa 0 C deg
1788529761 984.9 hPa 21.5 C deg 62.6 % 1016.9 hPa 0 C deg
1788527931 984.8 hPa 21.4 C deg 62.7 % 1016.8 hPa 0 C deg
1788526101 985.1 hPa 21.3 C deg 63.2 % 1017.1 hPa 0 C deg
1788524271 985.2 hPa 21.3 C deg 62.8 % 1017.3 hPa 0 C deg
*Used Equation Coefficients:
Press: 0, 1, 0
Temp.in: 0, 1, 0
Hum: 0, 1, 0
QNH: 0, 1, 0
Temp.out: 0, 1, 0

  • The parameter names for the analog channels will be Value1, Value2, Value3 (up to Value5) if station has not sent a PARAM-packet that specifies the parameter names for each analog channel.
  • Each analog value is a decimal number between 000 and 255 (according to APRS specifications). The receiver use the telemetry equation coefficientsto to restore the original sensor values. If no EQNS-packet with equation coefficients is sent we will show the values as is (this corresponds to the equation coefficients a=0, b=1 and c=0).
    The sent equation coefficients is used in the equation: a * value2 + b * value + c.
  • The units for the analog values will not be shown if station has not sent a UNIT-packet specifying what unit's to use.
  • The parameter names for the digital bits will be Bit1, Bit2, Bit3 (up to Bit8) if station has not sent a PARAM-packet that specifies the parameter names for each digital bit.
  • All bit labels will be named "On" if station has not sent a UNIT-packet that specifies the label of each bit.
  • A bit is considered to be On when the bit is 1 if station has not sent a BITS-packet that specifies another "Bit sense" (a BITS-packet specify the state of the bits that match the BIT labels)